Aeroboteco Virtual Airlines! Uma nuvem a frente.



 INFORMAÇÕES METEOROLÓGICAS
METAR FOR PAMD
ADDS - METARS form results

(2304 UTC 17 June 2019)
Data provider http://aviationweather.gov/metar/data/
 
METAR text: PAMD 172251Z AUTO 15010KT 10SM -RA SCT011 BKN023 OVC036 11/09 A2971 RMK AO2 SLP053 P0000 T01110089
Conditions at: PAMD (MIDDLETON ISLAND, AK, US) observed 2251 UTC 17 June 2019
Temperature: 11.1°C (52°F)
Dewpoint: 8.9°C (48°F) [RH = 86%]
Pressure (altimeter): 29.71 inches Hg (1006.2 mb)
[Sea-level pressure: 1005.3 mb]
Winds: from the SSE (150 degrees) at 12 MPH (10 knots; 5.1 m/s)
Visibility: 10 or more miles (16+ km)
Ceiling: 2300 feet AGL
Clouds: scattered clouds at 1100 feet AGL
broken clouds at 2300 feet AGL
overcast cloud deck at 3600 feet AGL
Weather: -RA  (light rain)

METAR text: PAMD 172247Z AUTO 16011KT 10SM -RA SCT011 BKN018 OVC034 11/09 A2971 RMK AO2 P0000
Conditions at: PAMD (MIDDLETON ISLAND, AK, US) observed 2247 UTC 17 June 2019
Temperature: 11.0°C (52°F)
Dewpoint: 9.0°C (48°F) [RH = 87%]
Pressure (altimeter): 29.71 inches Hg (1006.2 mb)
Winds: from the SSE (160 degrees) at 13 MPH (11 knots; 5.7 m/s)
Visibility: 10 or more miles (16+ km)
Ceiling: 1800 feet AGL
Clouds: scattered clouds at 1100 feet AGL
broken clouds at 1800 feet AGL
overcast cloud deck at 3400 feet AGL
Weather: -RA  (light rain)

METAR text: PAMD 172240Z AUTO 15010KT 10SM -RA BKN011 BKN018 OVC034 11/09 A2971 RMK AO2 P0000
Conditions at: PAMD (MIDDLETON ISLAND, AK, US) observed 2240 UTC 17 June 2019
Temperature: 11.0°C (52°F)
Dewpoint: 9.0°C (48°F) [RH = 87%]
Pressure (altimeter): 29.71 inches Hg (1006.2 mb)
Winds: from the SSE (150 degrees) at 12 MPH (10 knots; 5.1 m/s)
Visibility: 10 or more miles (16+ km)
Ceiling: 1100 feet AGL
Clouds: broken clouds at 1100 feet AGL
broken clouds at 1800 feet AGL
overcast cloud deck at 3400 feet AGL
Weather: -RA  (light rain)

METAR text: PAMD 172237Z AUTO 15009KT 10SM -RA SCT011 BKN018 OVC034 11/09 A2971 RMK AO2 P0000
Conditions at: PAMD (MIDDLETON ISLAND, AK, US) observed 2237 UTC 17 June 2019
Temperature: 11.0°C (52°F)
Dewpoint: 9.0°C (48°F) [RH = 87%]
Pressure (altimeter): 29.71 inches Hg (1006.2 mb)
Winds: from the SSE (150 degrees) at 10 MPH (9 knots; 4.6 m/s)
Visibility: 10 or more miles (16+ km)
Ceiling: 1800 feet AGL
Clouds: scattered clouds at 1100 feet AGL
broken clouds at 1800 feet AGL
overcast cloud deck at 3400 feet AGL
Weather: -RA  (light rain)

METAR text: PAMD 172228Z AUTO 16009KT 10SM -RA FEW011 BKN032 OVC050 11/09 A2971 RMK AO2 P0000
Conditions at: PAMD (MIDDLETON ISLAND, AK, US) observed 2228 UTC 17 June 2019
Temperature: 11.0°C (52°F)
Dewpoint: 9.0°C (48°F) [RH = 87%]
Pressure (altimeter): 29.71 inches Hg (1006.2 mb)
Winds: from the SSE (160 degrees) at 10 MPH (9 knots; 4.6 m/s)
Visibility: 10 or more miles (16+ km)
Ceiling: 3200 feet AGL
Clouds: few clouds at 1100 feet AGL
broken clouds at 3200 feet AGL
overcast cloud deck at 5000 feet AGL
Weather: -RA  (light rain)

 MAPA DO AEROPORTO

 INFORMAÇÕES DA PISTA
Pista 02 Tamanho da pista 4178 ft Largura da pista 115 ft
Elevação da pista 100 ft Ranhura da pista 1020 ft Proa da pista 34
Pista 20 Tamanho da pista 4178 ft Largura da pista 115 ft
Elevação da pista 100 ft Ranhura da pista 0 ft Proa da pista 214
Pista 13 Tamanho da pista 1500 ft Largura da pista 125 ft
Elevação da pista 99 ft Ranhura da pista 0 ft Proa da pista 149
Pista 31 Tamanho da pista 1500 ft Largura da pista 125 ft
Elevação da pista 97 ft Ranhura da pista 0 ft Proa da pista 329

 FREQUÊNCIAS DO AEROPORTO

 AUXÍLIOS DE NAVEGAÇÃO PRÓXIMOS AO AEROPORTO